sensor_id;sensor_type;location;lat;lon;timestamp;P1;durP1;ratioP1;P2;durP2;ratioP2
3081;SDS011;1551;51.046;7.010;2023-12-20T00:02:18;9.90;;;7.20;;
3081;SDS011;1551;51.046;7.010;2023-12-20T00:05:07;9.40;;;7.35;;
3081;SDS011;1551;51.046;7.010;2023-12-20T00:07:56;8.02;;;6.63;;
3081;SDS011;1551;51.046;7.010;2023-12-20T00:10:45;9.05;;;7.18;;
3081;SDS011;1551;51.046;7.010;2023-12-20T00:13:34;9.82;;;7.63;;
3081;SDS011;1551;51.046;7.010;2023-12-20T00:16:23;9.50;;;7.80;;
3081;SDS011;1551;51.046;7.010;2023-12-20T00:19:12;7.82;;;6.45;;
3081;SDS011;1551;51.046;7.010;2023-12-20T00:22:01;8.10;;;6.90;;
3081;SDS011;1551;51.046;7.010;2023-12-20T00:24:50;8.65;;;7.03;;
3081;SDS011;1551;51.046;7.010;2023-12-20T00:27:39;10.05;;;7.00;;
3081;SDS011;1551;51.046;7.010;2023-12-20T00:30:28;6.88;;;5.88;;
3081;SDS011;1551;51.046;7.010;2023-12-20T00:33:17;5.22;;;4.53;;
3081;SDS011;1551;51.046;7.010;2023-12-20T00:36:06;6.67;;;4.40;;
3081;SDS011;1551;51.046;7.010;2023-12-20T00:38:55;5.82;;;4.20;;
3081;SDS011;1551;51.046;7.010;2023-12-20T00:41:44;5.40;;;4.00;;
3081;SDS011;1551;51.046;7.010;2023-12-20T00:44:33;5.10;;;3.70;;
3081;SDS011;1551;51.046;7.010;2023-12-20T00:47:22;5.95;;;3.88;;
3081;SDS011;1551;51.046;7.010;2023-12-20T00:50:11;5.00;;;3.42;;
3081;SDS011;1551;51.046;7.010;2023-12-20T00:53:00;5.07;;;3.40;;
3081;SDS011;1551;51.046;7.010;2023-12-20T00:55:49;6.57;;;3.35;;
3081;SDS011;1551;51.046;7.010;2023-12-20T00:58:38;4.80;;;2.90;;
3081;SDS011;1551;51.046;7.010;2023-12-20T01:01:27;5.45;;;3.05;;
3081;SDS011;1551;51.046;7.010;2023-12-20T01:04:16;5.20;;;3.15;;
3081;SDS011;1551;51.046;7.010;2023-12-20T01:07:05;5.03;;;2.78;;
3081;SDS011;1551;51.046;7.010;2023-12-20T01:09:54;6.10;;;3.40;;
3081;SDS011;1551;51.046;7.010;2023-12-20T01:12:43;4.87;;;3.27;;
3081;SDS011;1551;51.046;7.010;2023-12-20T01:15:32;4.65;;;2.90;;
3081;SDS011;1551;51.046;7.010;2023-12-20T01:18:21;5.25;;;3.35;;
3081;SDS011;1551;51.046;7.010;2023-12-20T01:21:10;6.30;;;3.30;;
3081;SDS011;1551;51.046;7.010;2023-12-20T01:23:59;5.40;;;3.30;;
3081;SDS011;1551;51.046;7.010;2023-12-20T01:26:48;4.35;;;3.10;;
3081;SDS011;1551;51.046;7.010;2023-12-20T01:29:37;7.20;;;3.90;;
3081;SDS011;1551;51.046;7.010;2023-12-20T01:32:25;8.15;;;3.63;;
3081;SDS011;1551;51.046;7.010;2023-12-20T01:35:14;7.15;;;4.00;;
3081;SDS011;1551;51.046;7.010;2023-12-20T01:38:03;7.38;;;3.75;;
3081;SDS011;1551;51.046;7.010;2023-12-20T01:40:52;7.55;;;4.95;;
3081;SDS011;1551;51.046;7.010;2023-12-20T01:43:41;9.73;;;5.68;;
3081;SDS011;1551;51.046;7.010;2023-12-20T01:46:30;9.90;;;6.07;;
3081;SDS011;1551;51.046;7.010;2023-12-20T01:49:19;7.85;;;5.95;;
3081;SDS011;1551;51.046;7.010;2023-12-20T01:52:09;9.20;;;6.10;;
3081;SDS011;1551;51.046;7.010;2023-12-20T01:54:58;9.23;;;5.60;;
3081;SDS011;1551;51.046;7.010;2023-12-20T01:57:51;10.77;;;6.80;;
3081;SDS011;1551;51.046;7.010;2023-12-20T02:00:41;9.20;;;5.50;;
3081;SDS011;1551;51.046;7.010;2023-12-20T02:03:30;9.85;;;6.00;;
3081;SDS011;1551;51.046;7.010;2023-12-20T02:06:19;7.05;;;5.13;;
3081;SDS011;1551;51.046;7.010;2023-12-20T02:09:11;8.82;;;5.53;;
3081;SDS011;1551;51.046;7.010;2023-12-20T02:12:00;7.93;;;5.80;;
3081;SDS011;1551;51.046;7.010;2023-12-20T02:14:49;7.77;;;5.53;;
3081;SDS011;1551;51.046;7.010;2023-12-20T02:17:38;12.30;;;5.32;;
3081;SDS011;1551;51.046;7.010;2023-12-20T02:20:28;8.33;;;4.90;;
3081;SDS011;1551;51.046;7.010;2023-12-20T02:23:17;10.00;;;5.10;;
3081;SDS011;1551;51.046;7.010;2023-12-20T02:26:06;9.63;;;5.15;;
3081;SDS011;1551;51.046;7.010;2023-12-20T02:28:55;7.55;;;5.05;;
3081;SDS011;1551;51.046;7.010;2023-12-20T02:31:44;10.32;;;4.82;;
3081;SDS011;1551;51.046;7.010;2023-12-20T02:34:33;8.93;;;4.90;;
3081;SDS011;1551;51.046;7.010;2023-12-20T02:37:23;10.80;;;4.88;;
3081;SDS011;1551;51.046;7.010;2023-12-20T02:40:12;9.80;;;5.47;;
3081;SDS011;1551;51.046;7.010;2023-12-20T02:43:00;9.18;;;4.90;;
3081;SDS011;1551;51.046;7.010;2023-12-20T02:45:49;10.57;;;5.50;;
3081;SDS011;1551;51.046;7.010;2023-12-20T02:48:38;6.88;;;4.53;;
3081;SDS011;1551;51.046;7.010;2023-12-20T02:51:27;7.28;;;3.85;;
3081;SDS011;1551;51.046;7.010;2023-12-20T02:54:16;7.80;;;4.13;;
3081;SDS011;1551;51.046;7.010;2023-12-20T02:57:05;9.20;;;4.00;;
3081;SDS011;1551;51.046;7.010;2023-12-20T02:59:55;7.22;;;4.05;;
3081;SDS011;1551;51.046;7.010;2023-12-20T03:02:43;10.75;;;4.20;;
3081;SDS011;1551;51.046;7.010;2023-12-20T03:05:32;8.67;;;3.97;;
3081;SDS011;1551;51.046;7.010;2023-12-20T03:08:22;5.88;;;3.25;;
3081;SDS011;1551;51.046;7.010;2023-12-20T03:11:10;8.75;;;3.40;;
3081;SDS011;1551;51.046;7.010;2023-12-20T03:13:59;9.80;;;3.35;;
3081;SDS011;1551;51.046;7.010;2023-12-20T03:16:51;7.50;;;3.33;;
3081;SDS011;1551;51.046;7.010;2023-12-20T03:19:40;7.53;;;3.23;;
3081;SDS011;1551;51.046;7.010;2023-12-20T03:22:29;6.82;;;2.78;;
3081;SDS011;1551;51.046;7.010;2023-12-20T03:25:18;5.60;;;2.90;;
3081;SDS011;1551;51.046;7.010;2023-12-20T03:28:07;7.18;;;2.28;;
3081;SDS011;1551;51.046;7.010;2023-12-20T03:30:56;6.45;;;2.58;;
3081;SDS011;1551;51.046;7.010;2023-12-20T03:33:45;5.38;;;2.00;;
3081;SDS011;1551;51.046;7.010;2023-12-20T03:36:34;9.27;;;2.70;;
3081;SDS011;1551;51.046;7.010;2023-12-20T03:39:23;10.38;;;3.50;;
3081;SDS011;1551;51.046;7.010;2023-12-20T03:42:12;7.90;;;2.72;;
3081;SDS011;1551;51.046;7.010;2023-12-20T03:45:01;6.60;;;3.20;;
3081;SDS011;1551;51.046;7.010;2023-12-20T03:47:50;8.23;;;3.00;;
3081;SDS011;1551;51.046;7.010;2023-12-20T03:50:43;10.27;;;3.03;;
3081;SDS011;1551;51.046;7.010;2023-12-20T03:53:32;11.27;;;3.03;;
3081;SDS011;1551;51.046;7.010;2023-12-20T03:56:21;9.83;;;3.20;;
3081;SDS011;1551;51.046;7.010;2023-12-20T03:59:10;9.85;;;3.35;;
3081;SDS011;1551;51.046;7.010;2023-12-20T04:01:59;7.53;;;2.83;;
3081;SDS011;1551;51.046;7.010;2023-12-20T04:04:48;9.73;;;3.20;;
3081;SDS011;1551;51.046;7.010;2023-12-20T04:07:37;9.57;;;3.05;;
3081;SDS011;1551;51.046;7.010;2023-12-20T04:10:26;7.65;;;2.33;;
3081;SDS011;1551;51.046;7.010;2023-12-20T04:13:15;13.73;;;3.72;;
3081;SDS011;1551;51.046;7.010;2023-12-20T04:16:04;6.50;;;3.37;;
3081;SDS011;1551;51.046;7.010;2023-12-20T04:18:54;14.15;;;3.53;;
3081;SDS011;1551;51.046;7.010;2023-12-20T04:21:43;7.30;;;3.13;;
3081;SDS011;1551;51.046;7.010;2023-12-20T04:24:33;8.15;;;3.13;;
3081;SDS011;1551;51.046;7.010;2023-12-20T04:27:22;8.85;;;2.95;;
3081;SDS011;1551;51.046;7.010;2023-12-20T04:30:11;11.73;;;4.18;;
3081;SDS011;1551;51.046;7.010;2023-12-20T04:33:00;11.52;;;3.45;;
3081;SDS011;1551;51.046;7.010;2023-12-20T04:35:49;7.72;;;3.45;;
3081;SDS011;1551;51.046;7.010;2023-12-20T04:38:38;12.23;;;3.78;;
3081;SDS011;1551;51.046;7.010;2023-12-20T04:41:27;12.20;;;4.43;;
3081;SDS011;1551;51.046;7.010;2023-12-20T04:44:16;8.88;;;2.88;;
3081;SDS011;1551;51.046;7.010;2023-12-20T04:47:05;10.73;;;3.47;;
3081;SDS011;1551;51.046;7.010;2023-12-20T04:49:54;6.82;;;3.08;;
3081;SDS011;1551;51.046;7.010;2023-12-20T04:52:43;12.95;;;3.58;;
3081;SDS011;1551;51.046;7.010;2023-12-20T04:55:32;10.20;;;3.80;;
3081;SDS011;1551;51.046;7.010;2023-12-20T04:58:21;8.15;;;4.15;;
3081;SDS011;1551;51.046;7.010;2023-12-20T05:01:10;8.10;;;3.47;;
3081;SDS011;1551;51.046;7.010;2023-12-20T05:03:59;7.17;;;3.27;;
3081;SDS011;1551;51.046;7.010;2023-12-20T05:06:48;10.85;;;3.58;;
3081;SDS011;1551;51.046;7.010;2023-12-20T05:09:38;9.10;;;3.80;;
3081;SDS011;1551;51.046;7.010;2023-12-20T05:12:27;9.07;;;5.18;;
3081;SDS011;1551;51.046;7.010;2023-12-20T05:15:16;8.88;;;3.83;;
3081;SDS011;1551;51.046;7.010;2023-12-20T05:18:05;10.80;;;4.07;;
3081;SDS011;1551;51.046;7.010;2023-12-20T05:20:54;7.53;;;3.63;;
3081;SDS011;1551;51.046;7.010;2023-12-20T05:23:43;11.43;;;3.80;;
3081;SDS011;1551;51.046;7.010;2023-12-20T05:26:32;9.15;;;3.55;;
3081;SDS011;1551;51.046;7.010;2023-12-20T05:29:21;10.48;;;4.20;;
3081;SDS011;1551;51.046;7.010;2023-12-20T05:32:10;15.30;;;4.25;;
3081;SDS011;1551;51.046;7.010;2023-12-20T05:34:59;8.75;;;4.20;;
3081;SDS011;1551;51.046;7.010;2023-12-20T05:37:48;11.83;;;3.47;;
3081;SDS011;1551;51.046;7.010;2023-12-20T05:40:36;10.43;;;4.00;;
3081;SDS011;1551;51.046;7.010;2023-12-20T05:43:25;14.70;;;4.10;;
3081;SDS011;1551;51.046;7.010;2023-12-20T05:46:14;13.10;;;3.90;;
3081;SDS011;1551;51.046;7.010;2023-12-20T05:49:04;9.45;;;3.97;;
3081;SDS011;1551;51.046;7.010;2023-12-20T05:51:53;11.93;;;4.45;;
3081;SDS011;1551;51.046;7.010;2023-12-20T05:54:42;10.32;;;4.05;;
3081;SDS011;1551;51.046;7.010;2023-12-20T05:57:32;10.87;;;4.30;;
3081;SDS011;1551;51.046;7.010;2023-12-20T06:00:21;13.27;;;5.82;;
3081;SDS011;1551;51.046;7.010;2023-12-20T06:03:09;6.57;;;4.10;;
3081;SDS011;1551;51.046;7.010;2023-12-20T06:05:58;12.90;;;4.03;;
3081;SDS011;1551;51.046;7.010;2023-12-20T06:08:49;11.30;;;4.60;;
3081;SDS011;1551;51.046;7.010;2023-12-20T06:11:38;13.63;;;4.15;;
3081;SDS011;1551;51.046;7.010;2023-12-20T06:14:27;10.50;;;4.00;;
3081;SDS011;1551;51.046;7.010;2023-12-20T06:17:15;11.15;;;4.00;;
3081;SDS011;1551;51.046;7.010;2023-12-20T06:20:06;10.27;;;3.40;;
3081;SDS011;1551;51.046;7.010;2023-12-20T06:22:56;15.15;;;4.05;;
3081;SDS011;1551;51.046;7.010;2023-12-20T06:25:45;7.10;;;3.60;;
3081;SDS011;1551;51.046;7.010;2023-12-20T06:28:34;11.55;;;3.95;;
3081;SDS011;1551;51.046;7.010;2023-12-20T06:31:23;10.80;;;4.20;;
3081;SDS011;1551;51.046;7.010;2023-12-20T06:34:12;16.98;;;4.63;;
3081;SDS011;1551;51.046;7.010;2023-12-20T06:37:01;11.00;;;3.58;;
3081;SDS011;1551;51.046;7.010;2023-12-20T06:39:50;12.10;;;4.40;;
3081;SDS011;1551;51.046;7.010;2023-12-20T06:42:39;9.90;;;3.70;;
3081;SDS011;1551;51.046;7.010;2023-12-20T06:45:28;15.38;;;4.20;;
3081;SDS011;1551;51.046;7.010;2023-12-20T06:48:16;8.90;;;3.28;;
3081;SDS011;1551;51.046;7.010;2023-12-20T06:51:05;7.57;;;3.58;;
3081;SDS011;1551;51.046;7.010;2023-12-20T06:53:55;12.65;;;4.15;;
3081;SDS011;1551;51.046;7.010;2023-12-20T06:56:44;8.23;;;3.50;;
3081;SDS011;1551;51.046;7.010;2023-12-20T06:59:33;8.93;;;3.50;;
3081;SDS011;1551;51.046;7.010;2023-12-20T07:02:22;10.50;;;3.72;;
3081;SDS011;1551;51.046;7.010;2023-12-20T07:05:11;11.55;;;3.40;;
3081;SDS011;1551;51.046;7.010;2023-12-20T07:08:00;11.00;;;3.55;;
3081;SDS011;1551;51.046;7.010;2023-12-20T07:10:49;12.70;;;3.50;;
3081;SDS011;1551;51.046;7.010;2023-12-20T07:13:38;13.45;;;4.30;;
3081;SDS011;1551;51.046;7.010;2023-12-20T07:16:27;9.35;;;4.10;;
3081;SDS011;1551;51.046;7.010;2023-12-20T07:19:16;12.55;;;3.60;;
3081;SDS011;1551;51.046;7.010;2023-12-20T07:22:08;15.02;;;4.10;;
3081;SDS011;1551;51.046;7.010;2023-12-20T07:24:57;9.18;;;3.60;;
3081;SDS011;1551;51.046;7.010;2023-12-20T07:27:47;9.53;;;3.83;;
3081;SDS011;1551;51.046;7.010;2023-12-20T07:30:36;11.88;;;4.18;;
3081;SDS011;1551;51.046;7.010;2023-12-20T07:33:26;9.73;;;3.63;;
3081;SDS011;1551;51.046;7.010;2023-12-20T07:36:15;9.52;;;3.90;;
3081;SDS011;1551;51.046;7.010;2023-12-20T07:39:03;11.32;;;3.88;;
3081;SDS011;1551;51.046;7.010;2023-12-20T07:41:52;8.53;;;3.60;;
3081;SDS011;1551;51.046;7.010;2023-12-20T07:44:41;10.32;;;3.50;;
3081;SDS011;1551;51.046;7.010;2023-12-20T07:47:30;11.20;;;4.32;;
3081;SDS011;1551;51.046;7.010;2023-12-20T07:50:19;9.82;;;4.25;;
3081;SDS011;1551;51.046;7.010;2023-12-20T07:53:08;11.52;;;3.65;;
3081;SDS011;1551;51.046;7.010;2023-12-20T07:55:57;9.15;;;3.80;;
3081;SDS011;1551;51.046;7.010;2023-12-20T07:58:46;10.70;;;4.45;;
3081;SDS011;1551;51.046;7.010;2023-12-20T08:01:37;12.15;;;4.38;;
3081;SDS011;1551;51.046;7.010;2023-12-20T08:04:26;9.15;;;3.90;;
3081;SDS011;1551;51.046;7.010;2023-12-20T08:07:15;12.88;;;4.25;;
3081;SDS011;1551;51.046;7.010;2023-12-20T08:10:04;12.63;;;4.88;;
3081;SDS011;1551;51.046;7.010;2023-12-20T08:12:53;10.63;;;4.40;;
3081;SDS011;1551;51.046;7.010;2023-12-20T08:15:42;15.40;;;4.68;;
3081;SDS011;1551;51.046;7.010;2023-12-20T08:18:31;11.45;;;4.50;;
3081;SDS011;1551;51.046;7.010;2023-12-20T08:21:20;11.75;;;4.10;;
3081;SDS011;1551;51.046;7.010;2023-12-20T08:24:11;13.65;;;4.57;;
3081;SDS011;1551;51.046;7.010;2023-12-20T08:27:00;10.52;;;4.22;;
3081;SDS011;1551;51.046;7.010;2023-12-20T08:29:49;11.18;;;4.10;;
3081;SDS011;1551;51.046;7.010;2023-12-20T08:32:39;14.02;;;4.50;;
3081;SDS011;1551;51.046;7.010;2023-12-20T08:35:28;11.32;;;4.15;;
3081;SDS011;1551;51.046;7.010;2023-12-20T08:38:17;8.63;;;3.40;;
3081;SDS011;1551;51.046;7.010;2023-12-20T08:41:06;10.00;;;3.60;;
3081;SDS011;1551;51.046;7.010;2023-12-20T08:43:55;13.63;;;4.80;;
3081;SDS011;1551;51.046;7.010;2023-12-20T08:46:44;9.85;;;4.07;;
3081;SDS011;1551;51.046;7.010;2023-12-20T08:49:33;10.52;;;3.88;;
3081;SDS011;1551;51.046;7.010;2023-12-20T08:52:22;13.30;;;3.83;;
3081;SDS011;1551;51.046;7.010;2023-12-20T08:55:12;8.83;;;3.80;;
3081;SDS011;1551;51.046;7.010;2023-12-20T08:58:01;10.30;;;4.03;;
3081;SDS011;1551;51.046;7.010;2023-12-20T09:00:50;10.70;;;3.80;;
3081;SDS011;1551;51.046;7.010;2023-12-20T09:03:40;12.60;;;4.78;;
3081;SDS011;1551;51.046;7.010;2023-12-20T09:06:29;10.75;;;3.20;;
3081;SDS011;1551;51.046;7.010;2023-12-20T09:09:18;11.60;;;3.37;;
3081;SDS011;1551;51.046;7.010;2023-12-20T09:12:07;9.80;;;4.50;;
3081;SDS011;1551;51.046;7.010;2023-12-20T09:14:56;9.57;;;3.87;;
3081;SDS011;1551;51.046;7.010;2023-12-20T09:17:45;10.07;;;3.65;;
3081;SDS011;1551;51.046;7.010;2023-12-20T09:20:34;9.45;;;3.22;;
3081;SDS011;1551;51.046;7.010;2023-12-20T09:23:23;9.20;;;3.05;;
3081;SDS011;1551;51.046;7.010;2023-12-20T09:26:12;8.48;;;3.90;;
3081;SDS011;1551;51.046;7.010;2023-12-20T09:29:01;8.93;;;3.70;;
3081;SDS011;1551;51.046;7.010;2023-12-20T09:31:50;7.60;;;3.70;;
3081;SDS011;1551;51.046;7.010;2023-12-20T09:34:39;9.20;;;3.97;;
3081;SDS011;1551;51.046;7.010;2023-12-20T09:37:30;10.57;;;3.77;;
3081;SDS011;1551;51.046;7.010;2023-12-20T09:40:19;8.52;;;3.50;;
3081;SDS011;1551;51.046;7.010;2023-12-20T09:43:13;7.50;;;3.60;;
3081;SDS011;1551;51.046;7.010;2023-12-20T09:46:05;9.90;;;3.60;;
3081;SDS011;1551;51.046;7.010;2023-12-20T09:48:56;8.40;;;3.53;;
3081;SDS011;1551;51.046;7.010;2023-12-20T09:51:50;7.72;;;2.88;;
3081;SDS011;1551;51.046;7.010;2023-12-20T09:54:40;11.82;;;4.03;;
3081;SDS011;1551;51.046;7.010;2023-12-20T09:57:30;10.97;;;3.67;;
3081;SDS011;1551;51.046;7.010;2023-12-20T10:00:19;10.75;;;3.25;;
3081;SDS011;1551;51.046;7.010;2023-12-20T10:03:08;7.95;;;2.75;;
3081;SDS011;1551;51.046;7.010;2023-12-20T10:05:57;7.90;;;3.10;;
3081;SDS011;1551;51.046;7.010;2023-12-20T10:08:47;10.90;;;3.63;;
3081;SDS011;1551;51.046;7.010;2023-12-20T10:11:37;8.30;;;3.03;;
3081;SDS011;1551;51.046;7.010;2023-12-20T10:14:27;10.93;;;2.90;;
3081;SDS011;1551;51.046;7.010;2023-12-20T10:17:16;7.57;;;3.30;;
3081;SDS011;1551;51.046;7.010;2023-12-20T10:20:05;9.27;;;2.90;;
3081;SDS011;1551;51.046;7.010;2023-12-20T10:22:59;9.40;;;3.05;;
3081;SDS011;1551;51.046;7.010;2023-12-20T10:25:55;14.48;;;4.05;;
3081;SDS011;1551;51.046;7.010;2023-12-20T10:28:45;10.18;;;3.15;;
3081;SDS011;1551;51.046;7.010;2023-12-20T10:31:35;8.73;;;2.90;;
3081;SDS011;1551;51.046;7.010;2023-12-20T10:34:24;11.65;;;2.90;;
3081;SDS011;1551;51.046;7.010;2023-12-20T10:37:14;8.20;;;3.03;;
3081;SDS011;1551;51.046;7.010;2023-12-20T10:40:03;9.07;;;2.70;;
3081;SDS011;1551;51.046;7.010;2023-12-20T10:42:54;9.40;;;3.40;;
3081;SDS011;1551;51.046;7.010;2023-12-20T10:45:44;8.20;;;3.05;;
3081;SDS011;1551;51.046;7.010;2023-12-20T10:48:33;9.00;;;3.20;;
3081;SDS011;1551;51.046;7.010;2023-12-20T10:51:24;11.18;;;3.03;;
3081;SDS011;1551;51.046;7.010;2023-12-20T10:54:15;9.10;;;2.90;;
3081;SDS011;1551;51.046;7.010;2023-12-20T10:57:05;12.98;;;4.10;;
3081;SDS011;1551;51.046;7.010;2023-12-20T10:59:55;11.23;;;2.92;;
3081;SDS011;1551;51.046;7.010;2023-12-20T11:02:49;7.82;;;2.95;;
3081;SDS011;1551;51.046;7.010;2023-12-20T11:11:52;7.30;;;2.58;;
3081;SDS011;1551;51.046;7.010;2023-12-20T11:15:00;6.55;;;2.70;;
3081;SDS011;1551;51.046;7.010;2023-12-20T11:17:56;9.95;;;3.00;;
3081;SDS011;1551;51.046;7.010;2023-12-20T11:20:45;10.35;;;2.75;;
3081;SDS011;1551;51.046;7.010;2023-12-20T11:23:35;9.90;;;4.00;;
3081;SDS011;1551;51.046;7.010;2023-12-20T11:26:28;8.75;;;3.38;;
3081;SDS011;1551;51.046;7.010;2023-12-20T11:29:33;9.90;;;2.90;;
3081;SDS011;1551;51.046;7.010;2023-12-20T11:38:01;10.43;;;3.20;;
3081;SDS011;1551;51.046;7.010;2023-12-20T11:40:51;8.02;;;2.95;;
3081;SDS011;1551;51.046;7.010;2023-12-20T11:43:42;8.60;;;3.38;;
3081;SDS011;1551;51.046;7.010;2023-12-20T11:46:31;15.35;;;3.60;;
3081;SDS011;1551;51.046;7.010;2023-12-20T11:49:25;6.23;;;2.80;;
3081;SDS011;1551;51.046;7.010;2023-12-20T11:52:13;12.30;;;3.25;;
3081;SDS011;1551;51.046;7.010;2023-12-20T11:55:02;11.35;;;4.10;;
3081;SDS011;1551;51.046;7.010;2023-12-20T11:57:52;5.90;;;2.50;;
3081;SDS011;1551;51.046;7.010;2023-12-20T12:00:42;10.20;;;3.13;;
3081;SDS011;1551;51.046;7.010;2023-12-20T12:03:32;13.00;;;3.42;;
3081;SDS011;1551;51.046;7.010;2023-12-20T12:06:21;7.50;;;3.33;;
3081;SDS011;1551;51.046;7.010;2023-12-20T12:09:10;9.73;;;3.30;;
3081;SDS011;1551;51.046;7.010;2023-12-20T12:11:59;6.90;;;2.63;;
3081;SDS011;1551;51.046;7.010;2023-12-20T12:14:48;6.35;;;3.10;;
3081;SDS011;1551;51.046;7.010;2023-12-20T12:17:38;7.32;;;2.80;;
3081;SDS011;1551;51.046;7.010;2023-12-20T12:20:27;5.57;;;2.97;;
3081;SDS011;1551;51.046;7.010;2023-12-20T12:23:22;8.90;;;2.90;;
3081;SDS011;1551;51.046;7.010;2023-12-20T12:26:12;9.95;;;3.85;;
3081;SDS011;1551;51.046;7.010;2023-12-20T12:29:01;6.25;;;2.60;;
3081;SDS011;1551;51.046;7.010;2023-12-20T12:31:50;8.20;;;3.20;;
3081;SDS011;1551;51.046;7.010;2023-12-20T12:34:39;12.35;;;3.88;;
3081;SDS011;1551;51.046;7.010;2023-12-20T12:37:28;9.15;;;3.80;;
3081;SDS011;1551;51.046;7.010;2023-12-20T12:40:17;9.73;;;3.70;;
3081;SDS011;1551;51.046;7.010;2023-12-20T12:43:06;8.75;;;3.90;;
3081;SDS011;1551;51.046;7.010;2023-12-20T12:45:55;7.25;;;3.53;;
3081;SDS011;1551;51.046;7.010;2023-12-20T12:48:44;9.00;;;4.32;;
3081;SDS011;1551;51.046;7.010;2023-12-20T12:51:33;10.80;;;3.92;;
3081;SDS011;1551;51.046;7.010;2023-12-20T12:54:22;11.73;;;3.90;;
3081;SDS011;1551;51.046;7.010;2023-12-20T12:57:13;8.75;;;4.07;;
3081;SDS011;1551;51.046;7.010;2023-12-20T13:00:03;11.25;;;4.80;;
3081;SDS011;1551;51.046;7.010;2023-12-20T13:02:53;9.02;;;4.40;;
3081;SDS011;1551;51.046;7.010;2023-12-20T13:05:42;8.45;;;3.75;;
3081;SDS011;1551;51.046;7.010;2023-12-20T13:08:31;12.57;;;4.32;;
3081;SDS011;1551;51.046;7.010;2023-12-20T13:11:21;9.50;;;4.13;;
3081;SDS011;1551;51.046;7.010;2023-12-20T13:14:09;7.93;;;3.97;;
3081;SDS011;1551;51.046;7.010;2023-12-20T13:17:03;9.13;;;4.13;;
3081;SDS011;1551;51.046;7.010;2023-12-20T13:19:52;11.68;;;4.20;;
3081;SDS011;1551;51.046;7.010;2023-12-20T13:22:41;5.75;;;3.30;;
3081;SDS011;1551;51.046;7.010;2023-12-20T13:25:30;9.63;;;3.83;;
3081;SDS011;1551;51.046;7.010;2023-12-20T13:28:19;6.50;;;3.20;;
3081;SDS011;1551;51.046;7.010;2023-12-20T13:31:08;7.43;;;3.42;;
3081;SDS011;1551;51.046;7.010;2023-12-20T13:33:57;8.70;;;3.45;;
3081;SDS011;1551;51.046;7.010;2023-12-20T13:36:46;9.65;;;4.47;;
3081;SDS011;1551;51.046;7.010;2023-12-20T13:39:36;8.20;;;3.22;;
3081;SDS011;1551;51.046;7.010;2023-12-20T13:42:25;9.80;;;4.18;;
3081;SDS011;1551;51.046;7.010;2023-12-20T13:45:15;9.60;;;3.92;;
3081;SDS011;1551;51.046;7.010;2023-12-20T13:48:05;8.52;;;3.90;;
3081;SDS011;1551;51.046;7.010;2023-12-20T13:50:54;11.32;;;3.60;;
3081;SDS011;1551;51.046;7.010;2023-12-20T13:53:43;8.20;;;3.00;;
3081;SDS011;1551;51.046;7.010;2023-12-20T13:56:32;8.27;;;3.40;;
3081;SDS011;1551;51.046;7.010;2023-12-20T13:59:22;7.28;;;3.38;;
3081;SDS011;1551;51.046;7.010;2023-12-20T14:02:11;4.88;;;2.80;;
3081;SDS011;1551;51.046;7.010;2023-12-20T14:04:59;9.32;;;3.85;;
3081;SDS011;1551;51.046;7.010;2023-12-20T14:07:48;11.25;;;3.17;;
3081;SDS011;1551;51.046;7.010;2023-12-20T14:10:37;10.50;;;3.67;;
3081;SDS011;1551;51.046;7.010;2023-12-20T14:13:27;5.07;;;2.90;;
3081;SDS011;1551;51.046;7.010;2023-12-20T14:16:16;7.43;;;3.25;;
3081;SDS011;1551;51.046;7.010;2023-12-20T14:19:05;7.40;;;3.35;;
3081;SDS011;1551;51.046;7.010;2023-12-20T14:21:56;7.22;;;3.08;;
3081;SDS011;1551;51.046;7.010;2023-12-20T14:24:44;7.70;;;3.30;;
3081;SDS011;1551;51.046;7.010;2023-12-20T14:27:34;11.32;;;3.85;;
3081;SDS011;1551;51.046;7.010;2023-12-20T14:30:23;6.33;;;2.80;;
3081;SDS011;1551;51.046;7.010;2023-12-20T14:33:13;9.37;;;3.80;;
3081;SDS011;1551;51.046;7.010;2023-12-20T14:36:02;8.38;;;3.80;;
3081;SDS011;1551;51.046;7.010;2023-12-20T14:38:53;10.75;;;3.70;;
3081;SDS011;1551;51.046;7.010;2023-12-20T14:41:42;8.18;;;3.30;;
3081;SDS011;1551;51.046;7.010;2023-12-20T14:44:31;5.97;;;3.40;;
3081;SDS011;1551;51.046;7.010;2023-12-20T14:47:20;8.82;;;3.33;;
3081;SDS011;1551;51.046;7.010;2023-12-20T14:50:09;6.97;;;3.10;;
3081;SDS011;1551;51.046;7.010;2023-12-20T14:53:00;6.87;;;3.67;;
3081;SDS011;1551;51.046;7.010;2023-12-20T14:55:49;7.75;;;3.53;;
3081;SDS011;1551;51.046;7.010;2023-12-20T14:58:39;6.50;;;3.20;;
3081;SDS011;1551;51.046;7.010;2023-12-20T15:01:28;6.85;;;2.70;;
3081;SDS011;1551;51.046;7.010;2023-12-20T15:04:17;7.88;;;3.13;;
3081;SDS011;1551;51.046;7.010;2023-12-20T15:07:06;7.30;;;3.60;;
3081;SDS011;1551;51.046;7.010;2023-12-20T15:09:55;9.45;;;3.20;;
3081;SDS011;1551;51.046;7.010;2023-12-20T15:12:45;8.65;;;3.28;;
3081;SDS011;1551;51.046;7.010;2023-12-20T15:15:34;4.93;;;2.70;;
3081;SDS011;1551;51.046;7.010;2023-12-20T15:18:23;9.80;;;3.00;;
3081;SDS011;1551;51.046;7.010;2023-12-20T15:21:12;7.22;;;2.85;;
3081;SDS011;1551;51.046;7.010;2023-12-20T15:24:01;10.68;;;6.65;;
3081;SDS011;1551;51.046;7.010;2023-12-20T15:27:03;10.85;;;3.65;;
3081;SDS011;1551;51.046;7.010;2023-12-20T15:29:53;8.35;;;3.55;;
3081;SDS011;1551;51.046;7.010;2023-12-20T15:32:42;9.18;;;3.05;;
3081;SDS011;1551;51.046;7.010;2023-12-20T15:35:31;8.82;;;4.00;;
3081;SDS011;1551;51.046;7.010;2023-12-20T15:38:20;9.10;;;3.50;;
3081;SDS011;1551;51.046;7.010;2023-12-20T15:41:09;7.82;;;3.42;;
3081;SDS011;1551;51.046;7.010;2023-12-20T15:43:58;11.20;;;4.05;;
3081;SDS011;1551;51.046;7.010;2023-12-20T15:46:47;4.88;;;3.15;;
3081;SDS011;1551;51.046;7.010;2023-12-20T15:49:36;7.45;;;3.80;;
3081;SDS011;1551;51.046;7.010;2023-12-20T15:52:24;10.00;;;4.30;;
3081;SDS011;1551;51.046;7.010;2023-12-20T15:55:14;5.97;;;3.30;;
3081;SDS011;1551;51.046;7.010;2023-12-20T15:58:03;12.55;;;4.47;;
3081;SDS011;1551;51.046;7.010;2023-12-20T16:00:52;8.20;;;4.10;;
3081;SDS011;1551;51.046;7.010;2023-12-20T16:03:41;10.13;;;4.35;;
3081;SDS011;1551;51.046;7.010;2023-12-20T16:06:31;9.38;;;3.60;;
3081;SDS011;1551;51.046;7.010;2023-12-20T16:09:20;8.90;;;3.70;;
3081;SDS011;1551;51.046;7.010;2023-12-20T16:12:09;9.48;;;3.85;;
3081;SDS011;1551;51.046;7.010;2023-12-20T16:14:58;9.85;;;3.85;;
3081;SDS011;1551;51.046;7.010;2023-12-20T16:17:47;8.85;;;4.00;;
3081;SDS011;1551;51.046;7.010;2023-12-20T16:20:37;14.07;;;4.05;;
3081;SDS011;1551;51.046;7.010;2023-12-20T16:23:26;8.18;;;3.70;;
3081;SDS011;1551;51.046;7.010;2023-12-20T16:26:16;12.75;;;4.50;;
3081;SDS011;1551;51.046;7.010;2023-12-20T16:29:05;10.68;;;3.80;;
3081;SDS011;1551;51.046;7.010;2023-12-20T16:31:54;10.77;;;4.28;;
3081;SDS011;1551;51.046;7.010;2023-12-20T16:34:43;7.07;;;3.80;;
3081;SDS011;1551;51.046;7.010;2023-12-20T16:37:33;6.97;;;4.17;;
3081;SDS011;1551;51.046;7.010;2023-12-20T16:40:26;11.48;;;4.65;;
3081;SDS011;1551;51.046;7.010;2023-12-20T16:43:15;10.13;;;5.20;;
3081;SDS011;1551;51.046;7.010;2023-12-20T16:46:04;6.03;;;3.53;;
3081;SDS011;1551;51.046;7.010;2023-12-20T16:48:53;8.32;;;3.90;;
3081;SDS011;1551;51.046;7.010;2023-12-20T16:51:42;11.88;;;5.00;;
3081;SDS011;1551;51.046;7.010;2023-12-20T16:54:32;8.48;;;4.32;;
3081;SDS011;1551;51.046;7.010;2023-12-20T16:57:21;9.25;;;4.60;;
3081;SDS011;1551;51.046;7.010;2023-12-20T17:00:10;10.00;;;4.05;;
3081;SDS011;1551;51.046;7.010;2023-12-20T17:03:00;10.52;;;4.30;;
3081;SDS011;1551;51.046;7.010;2023-12-20T17:05:49;9.65;;;4.35;;
3081;SDS011;1551;51.046;7.010;2023-12-20T17:08:38;10.90;;;4.40;;
3081;SDS011;1551;51.046;7.010;2023-12-20T17:11:27;10.30;;;4.47;;
3081;SDS011;1551;51.046;7.010;2023-12-20T17:14:16;7.38;;;4.25;;
3081;SDS011;1551;51.046;7.010;2023-12-20T17:17:05;11.82;;;5.10;;
3081;SDS011;1551;51.046;7.010;2023-12-20T17:19:54;8.60;;;4.40;;
3081;SDS011;1551;51.046;7.010;2023-12-20T17:22:43;8.98;;;4.07;;
3081;SDS011;1551;51.046;7.010;2023-12-20T17:25:32;15.25;;;6.50;;
3081;SDS011;1551;51.046;7.010;2023-12-20T17:28:27;10.05;;;5.30;;
3081;SDS011;1551;51.046;7.010;2023-12-20T17:31:16;11.93;;;4.78;;
3081;SDS011;1551;51.046;7.010;2023-12-20T17:34:05;11.30;;;5.28;;
3081;SDS011;1551;51.046;7.010;2023-12-20T17:36:58;8.23;;;4.70;;
3081;SDS011;1551;51.046;7.010;2023-12-20T17:39:47;10.73;;;4.40;;